• Join FlightAware (Why Join?)
  • Login
  • US Flag 
12:43PM EDT


 

Airport Tracker/Info


-or-


 

Live Flight TrackerFlight Track Log ✈ SWA760 ✈ 03-May-2013 ✈ KLAS - KSLC

Flight Track Log - Related Links

Times and Time Zones

All times are in EDT time to prevent confusion due to time zone crossing. See the SWA760 flight status page for this flight to view local times or setup timezone preferences in your user account.

Time Position Orientation Groundspeed Altitude Reporting Facility
EDT Latitude Longitude Course Direction KTS MPH feet Rate Location/Type
05:20PM 36.0747 -115.1714 278° West 144 166 3,200  Level Los Angeles Center
05:20PM 36.0772 -115.1942 278° West 183 211 3,900 2,280 Climbing Los Angeles Center
05:21PM 36.0817 -115.2717 274° West 212 244 6,700 3,120 Climbing Los Angeles Center
05:22PM 36.1481 -115.2900 347° North 245 282 10,400 3,120 Climbing Los Angeles Center
05:23PM 36.1875 -115.2125 58° Northeast 272 313 13,200 2,580 Climbing Los Angeles Center
05:24PM 36.1981 -115.0681 85° East 366 421 15,800 2,580 Climbing Los Angeles Center
05:25PM 36.1986 -114.9342 90° East 388 447 18,600 2,760 Climbing Los Angeles Center
05:26PM 36.2047 -114.7953 87° East 405 466 21,600 2,640 Climbing Los Angeles Center
05:27PM 36.2875 -114.6997 43° Northeast 416 479 24,100 2,160 Climbing Los Angeles Center
05:28PM 36.3789 -114.6111 38° Northeast 419 482 26,100 1,980 Climbing Los Angeles Center
05:29PM 36.4964 -114.4994 37° Northeast 441 507 28,300 2,220 Climbing Los Angeles Center
05:30PM 36.6003 -114.4119 34° Northeast 451 519 30,700 2,220 Climbing Los Angeles Center
05:31PM 36.7033 -114.3325 32° Northeast 440 506 32,900 1,080 Climbing Los Angeles Center
05:32PM 36.8064 -114.2519 32° Northeast 439 505 33,000  Climbing Los Angeles Center
05:33PM 36.9106 -114.1706 32° Northeast 442 509 33,000  Level Los Angeles Center
05:35PM 37.0131 -114.0897 32° Northeast 439 505 33,000  Level Los Angeles Center
05:36PM 37.1372 -113.9933 32° Northeast 438 504 33,000  Level Los Angeles Center
05:37PM 37.2406 -113.9125 32° Northeast 438 504 33,000  Level Los Angeles Center
05:38PM 37.3272 -113.8453 32° Northeast 439 505 33,000  Level Salt Lake Center
05:39PM 37.4308 -113.7625 32° Northeast 440 506 33,000  Level Salt Lake Center
05:40PM 37.5564 -113.6622 32° Northeast 444 511 33,000  Level Salt Lake Center
05:41PM 37.6603 -113.5789 32° Northeast 442 509 33,000  Level Salt Lake Center
05:42PM 37.7650 -113.4961 32° Northeast 443 510 33,000  Level Salt Lake Center
05:43PM 37.8697 -113.4131 32° Northeast 442 509 33,000  Level Salt Lake Center
05:44PM 37.9744 -113.3286 32° Northeast 444 511 33,000 -480 Level Salt Lake Center
05:45PM 38.0792 -113.2442 32° Northeast 444 511 32,100 -960 Descending Salt Lake Center
05:46PM 38.1850 -113.1575 33° Northeast 449 517 31,100 -540 Descending Salt Lake Center
05:47PM 38.2886 -113.0736 32° Northeast 441 507 31,000 -60 Descending Salt Lake Center
05:48PM 38.4111 -112.9831 30° Northeast 428 493 31,000  Level Salt Lake Center
05:49PM 38.5197 -112.9303 21° North 420 483 31,000  Level Salt Lake Center
05:50PM 38.6283 -112.8719 23° Northeast 422 486 31,000  Level Salt Lake Center
05:51PM 38.7369 -112.8136 23° Northeast 422 486 31,000  Level Salt Lake Center
05:52PM 38.8458 -112.7539 23° Northeast 426 490 31,000  Level Salt Lake Center
05:53PM 38.9569 -112.6947 22° Northeast 431 496 31,000  Level Salt Lake Center
05:54PM 39.0669 -112.6356 23° Northeast 429 494 31,000 -840 Level Salt Lake Center
05:55PM 39.1750 -112.5753 23° Northeast 425 489 29,300 -1,860 Descending Salt Lake Center
05:56PM 39.2969 -112.5092 23° Northeast 414 476 27,200 -1,920 Descending Salt Lake Center
05:57PM 39.3978 -112.4517 24° Northeast 402 463 25,400 -1,800 Descending Salt Lake Center
05:58PM 39.4950 -112.3950 24° Northeast 388 447 23,600 -1,740 Descending Salt Lake Center
05:59PM 39.5908 -112.3394 24° Northeast 379 436 21,900 -1,620 Descending Salt Lake Center
06:00PM 39.6825 -112.2892 23° Northeast 366 421 20,300 -1,740 Descending Salt Lake Center
06:01PM 39.7897 -112.2269 24° Northeast 358 412 18,400 -1,680 Descending Salt Lake Center
06:02PM 39.8736 -112.1761 25° Northeast 340 391 16,900 -1,680 Descending Salt Lake Center
06:03PM 39.9589 -112.1353 20° North 333 383 15,100 -1,200 Descending Salt Lake Center
06:04PM 40.0456 -112.0839 24° Northeast 318 366 14,400 -1,020 Descending Salt Lake Center
06:05PM 40.1186 -112.0306 29° Northeast 319 367 13,000 -1,320 Descending Salt Lake Center
06:06PM 40.2008 -111.9869 22° Northeast 317 365 11,900 -960 Descending Salt Lake Center
06:07PM 40.2769 -111.9481 21° North 308 354 11,100 -900 Descending Salt Lake Center
06:08PM 40.3722 -111.9600 355° North 291 335 10,100 -1,020 Descending Salt Lake Center
06:09PM 40.4539 -111.9614 359° North 289 333 9,100 -840 Descending Salt Lake Center
06:11PM 40.5381 -111.9717 355° North 279 321 8,400 -840 Descending Salt Lake Center
06:11PM 40.6017 -111.9781 356° North 240 276 7,500 -1,020 Descending Salt Lake Center
06:12PM 40.6550 -111.9856 354° North 202 232 6,500 -900 Descending Salt Lake Center
06:14PM 40.7031 -111.9867 359° North 172 198 5,700 -840 Descending Salt Lake Center
06:14PM 40.7425 -111.9928 353° North 141 162 4,900 -780 Descending Salt Lake Center
06:16PM 40.7803 -111.9956 357° North 140 161 4,200 -660 Descending Salt Lake Center
06:18PM 40.7833 -111.9667 North  Level FlightAware Approximate